Meteorología y climatología de Navarra
Datos de la estación - Meteo Navarra

Estación de Eltzaburu GN

Altitud 588 m.


Datos desde el 12/09/2019 hasta el 13/09/2019 en horario solar
Los datos son PROVISIONALES

Anterior Página 1 de 1 Siguiente Descargar: Formato para Excel 2000 o superior   Formato csv   Formato para OpenOffice Calc
Fecha Temperatura Humedad relativa Radiación global Insolación Precipitación Vel. viento 10 m Vel. viento 10 m Dir. viento 10 m
ºC % W/m² s l/m² m/s km/h º
12/09/2019 0:00 12.2 89 0.0 0 0.0 2.1 7.6 320
12/09/2019 0:10 12.1 88 0.0 0 0.0 2.2 7.8 322
12/09/2019 0:20 12.4 87 0.0 0 0.0 2.0 7.1 319
12/09/2019 0:30 12.3 87 0.0 0 0.0 1.3 4.7 314
12/09/2019 0:40 12.2 88 0.0 0 0.0 1.5 5.5 313
12/09/2019 0:50 12.2 87 0.0 0 0.0 2.6 9.3 323
12/09/2019 1:00 12.3 87 0.0 0 0.0 2.4 8.5 326
12/09/2019 1:10 12.0 88 0.0 0 0.0 1.9 6.7 338
12/09/2019 1:20 11.9 88 0.0 0 0.0 1.4 5.1 307
12/09/2019 1:30 11.9 86 0.0 0 0.0 1.4 4.9 310
12/09/2019 1:40 11.6 86 0.0 0 0.0 1.1 3.9 314
12/09/2019 1:50 11.6 86 0.0 0 0.0 1.2 4.4 305
12/09/2019 2:00 11.5 87 0.0 0 0.0 1.3 4.8 326
12/09/2019 2:10 11.4 88 0.0 0 0.0 1.6 5.6 328
12/09/2019 2:20 11.3 87 0.0 0 0.0 2.2 7.9 328
12/09/2019 2:30 11.2 86 0.0 0 0.0 2.5 9.0 328
12/09/2019 2:40 11.3 85 0.0 0 0.0 2.5 9.0 329
12/09/2019 2:50 11.4 86 0.0 0 0.0 2.4 8.6 318
12/09/2019 3:00 11.0 89 0.0 0 0.0 2.2 8.0 319
12/09/2019 3:10 10.5 92 0.0 0 0.0 2.5 8.8 325
12/09/2019 3:20 10.4 92 0.0 0 0.0 2.0 7.3 324
12/09/2019 3:30 10.1 94 0.0 0 0.0 2.2 7.9 332
12/09/2019 3:40 10.5 90 0.0 0 0.0 2.0 7.3 334
12/09/2019 3:50 9.6 93 0.0 0 0.0 1.2 4.4 295
12/09/2019 4:00 9.3 98 0.0 0 0.0 1.4 5.1 341
12/09/2019 4:10 10.5 88 0.0 0 0.0 1.6 5.6 356
12/09/2019 4:20 10.8 87 0.0 0 0.0 0.9 3.2 33
12/09/2019 4:30 10.8 90 0.0 0 0.0 1.9 6.8 10
12/09/2019 4:40 11.0 91 0.0 0 0.0 3.0 10.9 350
12/09/2019 4:50 11.2 90 0.0 0 0.0 3.1 11.0 336
12/09/2019 5:00 11.2 91 0.0 0 0.0 2.8 10.1 329
12/09/2019 5:10 10.8 94 0.0 0 0.0 2.1 7.6 319
12/09/2019 5:20 10.8 96 0.0 0 0.0 2.5 9.0 337
12/09/2019 5:30 10.7 97 0.0 0 0.0 2.6 9.3 330
12/09/2019 5:40 10.8 96 0.0 0 0.0 2.6 9.5 337
12/09/2019 5:50 11.0 96 0.0 0 0.0 2.8 10.2 333
12/09/2019 6:00 11.0 96 0.0 0 0.0 3.4 12.1 341
12/09/2019 6:10 11.2 95 9.2 0 0.0 4.0 14.3 339
12/09/2019 6:20 11.3 95 20.4 0 0.0 3.9 14.0 339
12/09/2019 6:30 11.2 96 24.8 0 0.0 3.8 13.5 337
12/09/2019 6:40 11.3 96 29.9 0 0.0 4.1 14.6 338
12/09/2019 6:50 11.5 95 41.3 0 0.0 3.8 13.5 339
12/09/2019 7:00 11.7 93 42.0 0 0.0 3.8 13.8 339
12/09/2019 7:10 11.9 91 52.1 0 0.0 3.9 14.0 339
12/09/2019 7:20 12.1 89 181.1 454 0.0 3.6 12.8 337
12/09/2019 7:30 12.4 86 136.5 94 0.0 3.5 12.5 344
12/09/2019 7:40 12.8 83 283.4 600 0.0 4.0 14.2 342
12/09/2019 7:50 13.1 81 335.6 600 0.0 3.5 12.5 341
12/09/2019 8:00 13.6 79 369.1 600 0.0 3.4 12.1 329
12/09/2019 8:10 13.9 77 402.1 600 0.0 3.3 11.9 328
12/09/2019 8:20 14.4 74 434.3 600 0.0 3.0 10.7 327
12/09/2019 8:30 15.1 72 464.3 600 0.0 2.7 9.6 333
12/09/2019 8:40 15.4 71 495.5 600 0.0 3.0 10.7 342
12/09/2019 8:50 15.7 69 524.9 600 0.0 3.2 11.6 340
12/09/2019 9:00 16.1 67 552.6 600 0.0 2.8 9.9 348
12/09/2019 9:10 16.8 65 578.0 600 0.0 2.4 8.7 345
12/09/2019 9:20 17.7 62 602.7 600 0.0 2.3 8.2 332
12/09/2019 9:30 18.1 61 626.2 600 0.0 1.6 5.8 325
12/09/2019 9:40 18.8 57 649.2 600 0.0 1.4 5.0 341
12/09/2019 9:50 19.7 55 669.9 600 0.0 1.0 3.6 323
12/09/2019 10:00 19.9 55 687.8 600 0.0 1.8 6.5 343
12/09/2019 10:10 19.4 56 706.5 600 0.0 2.3 8.4 343
12/09/2019 10:20 19.9 55 724.5 600 0.0 2.4 8.6 343
12/09/2019 10:30 20.3 54 739.2 600 0.0 2.1 7.7 338
12/09/2019 10:40 20.5 55 752.5 600 0.0 2.3 8.4 333
12/09/2019 10:50 20.6 55 768.6 600 0.0 2.8 10.0 333
12/09/2019 11:00 20.6 56 782.4 600 0.0 2.9 10.5 341
12/09/2019 11:10 20.7 56 795.5 600 0.0 3.4 12.1 343
12/09/2019 11:20 20.9 57 808.0 600 0.0 3.0 10.7 336
12/09/2019 11:30 21.1 56 820.0 600 0.0 2.8 10.0 342
12/09/2019 11:40 21.2 56 829.0 600 0.0 2.7 9.6 337
12/09/2019 11:50 21.3 55 835.0 600 0.0 2.8 10.1 343
12/09/2019 12:00 21.6 54 835.0 600 0.0 2.4 8.5 337
12/09/2019 12:10 21.8 54 833.0 600 0.0 2.8 10.0 343
12/09/2019 12:20 21.8 54 828.0 600 0.0 3.3 12.0 342
12/09/2019 12:30 21.7 55 825.0 600 0.0 3.2 11.3 343
12/09/2019 12:40 21.9 55 821.0 600 0.0 3.0 10.9 339
12/09/2019 12:50 22.0 54 816.0 600 0.0 3.1 11.0 342
12/09/2019 13:00 22.0 55 809.0 600 0.0 3.3 11.8 336
12/09/2019 13:10 21.7 57 801.0 600 0.0 3.5 12.6 335
12/09/2019 13:20 21.8 57 792.2 600 0.0 3.6 12.9 334
12/09/2019 13:30 21.7 58 781.5 600 0.0 3.3 12.0 336
12/09/2019 13:40 21.8 57 766.8 600 0.0 4.0 14.5 337
12/09/2019 13:50 21.4 60 749.5 600 0.0 4.4 15.9 339
12/09/2019 14:00 21.4 61 729.9 600 0.0 3.7 13.1 335
12/09/2019 14:10 21.6 60 709.2 600 0.0 3.0 10.8 345
12/09/2019 14:20 21.8 60 686.3 600 0.0 2.9 10.6 349
12/09/2019 14:30 22.0 59 660.4 600 0.0 2.9 10.5 6
12/09/2019 14:40 21.8 60 634.6 600 0.0 3.0 10.9 348
12/09/2019 14:50 22.1 60 608.2 600 0.0 2.6 9.3 341
12/09/2019 15:00 22.0 61 582.8 600 0.0 3.2 11.4 344
12/09/2019 15:10 21.6 61 556.9 600 0.0 3.5 12.5 354
12/09/2019 15:20 21.7 62 531.0 600 0.0 2.3 8.1 354
12/09/2019 15:30 22.0 61 503.8 600 0.0 2.7 9.7 348
12/09/2019 15:40 21.7 62 475.9 600 0.0 2.1 7.7 346
12/09/2019 15:50 21.8 61 445.9 600 0.0 2.1 7.4 323
12/09/2019 16:00 21.7 62 416.2 600 0.0 1.8 6.6 338
12/09/2019 16:10 21.8 61 385.1 600 0.0 2.0 7.2 334
12/09/2019 16:20 21.5 62 355.6 600 0.0 2.0 7.2 323
12/09/2019 16:30 21.3 63 322.7 600 0.0 2.0 7.2 323
12/09/2019 16:40 21.0 64 288.7 600 0.0 1.6 5.8 318
12/09/2019 16:50 20.9 64 254.1 600 0.0 1.8 6.4 325
12/09/2019 17:00 20.4 66 218.6 600 0.0 2.4 8.7 335
12/09/2019 17:10 20.0 68 185.2 600 0.0 2.3 8.3 324
12/09/2019 17:20 19.7 69 157.2 600 0.0 2.8 10.0 339
12/09/2019 17:30 19.2 72 126.1 600 0.0 2.6 9.4 333
12/09/2019 17:40 18.9 74 96.0 600 0.0 2.1 7.6 335
12/09/2019 17:50 18.7 75 67.2 600 0.0 1.8 6.6 334
12/09/2019 18:00 18.2 78 25.0 134 0.0 1.6 5.9 314
12/09/2019 18:10 17.8 80 4.0 0 0.0 2.3 8.2 323
12/09/2019 18:20 17.3 82 0.0 0 0.0 2.2 7.8 334
12/09/2019 18:30 16.8 84 0.0 0 0.0 2.5 9.1 332
12/09/2019 18:40 16.6 85 0.0 0 0.0 2.3 8.3 331
12/09/2019 18:50 16.3 87 0.0 0 0.0 1.9 6.7 341
12/09/2019 19:00 15.9 88 0.0 0 0.0 2.2 8.0 332
12/09/2019 19:10 15.8 88 0.0 0 0.0 2.2 7.9 332
12/09/2019 19:20 15.7 88 0.0 0 0.0 2.0 7.2 342
12/09/2019 19:30 15.6 88 0.0 0 0.0 2.1 7.6 343
12/09/2019 19:40 15.5 88 0.0 0 0.0 1.8 6.6 333
12/09/2019 19:50 15.2 89 0.0 0 0.0 1.9 6.9 337
12/09/2019 20:00 15.2 88 0.0 0 0.0 1.9 6.8 335
12/09/2019 20:10 15.1 88 0.0 0 0.0 1.9 6.9 328
12/09/2019 20:20 15.2 87 0.0 0 0.0 2.4 8.7 329
12/09/2019 20:30 15.2 86 0.0 0 0.0 1.8 6.6 339
12/09/2019 20:40 15.1 85 0.0 0 0.0 2.3 8.2 337
12/09/2019 20:50 15.1 84 0.0 0 0.0 2.5 8.8 339
12/09/2019 21:00 15.2 83 0.0 0 0.0 2.7 9.6 337
12/09/2019 21:10 15.1 83 0.0 0 0.0 3.2 11.3 337
12/09/2019 21:20 15.3 81 0.0 0 0.0 3.7 13.3 343
12/09/2019 21:30 15.2 81 0.0 0 0.0 3.6 12.9 341
12/09/2019 21:40 15.0 81 0.0 0 0.0 3.2 11.6 336
12/09/2019 21:50 14.9 82 0.0 0 0.0 3.0 10.8 341
12/09/2019 22:00 14.9 80 0.0 0 0.0 2.9 10.4 340
12/09/2019 22:10 15.0 79 0.0 0 0.0 2.7 9.6 336
12/09/2019 22:20 14.9 79 0.0 0 0.0 2.7 9.6 330
12/09/2019 22:30 14.8 79 0.0 0 0.0 3.0 10.7 329
12/09/2019 22:40 14.9 77 0.0 0 0.0 2.7 9.7 326
12/09/2019 22:50 14.9 76 0.0 0 0.0 2.8 10.1 333
12/09/2019 23:00 15.0 76 0.0 0 0.0 2.7 9.8 328
12/09/2019 23:10 15.1 76 0.0 0 0.0 2.8 9.9 329
12/09/2019 23:20 15.0 77 0.0 0 0.0 2.8 10.2 329
12/09/2019 23:30 14.9 78 0.0 0 0.0 2.4 8.8 332
12/09/2019 23:40 14.7 79 0.0 0 0.0 2.5 9.0 328
12/09/2019 23:50 14.8 79 0.0 0 0.0 1.8 6.6 333
Anterior Página 1 de 1 Siguiente

NOTA: Tipo de datos según el color:
   - Valores diarios o 10 minutos correctos
   - Valores diarios calculados a partir de un número de datos 10 minutos menor que 144 y mayor que 120, o de un número de datos semihorarios menor que 48 y mayor que 40 (caso de las estaciones de Riegos de Navarra y del MARM)
   - Valores diez minutos estimados


Contacto        Enlaces        Aviso legal